createdAt,value
2022-12-04T00:00:56.784Z,1017.39
2022-12-04T00:01:56.770Z,1017.40
2022-12-04T00:02:56.831Z,1017.42
2022-12-04T00:03:56.768Z,1017.46
2022-12-04T00:04:56.814Z,1017.47
2022-12-04T00:05:56.742Z,1017.48
2022-12-04T00:06:58.963Z,1017.48
2022-12-04T00:07:56.796Z,1017.47
2022-12-04T00:08:56.697Z,1017.47
2022-12-04T00:09:57.004Z,1017.45
2022-12-04T00:10:56.681Z,1017.47
2022-12-04T00:11:56.659Z,1017.50
2022-12-04T00:12:56.661Z,1017.49
2022-12-04T00:14:00.182Z,1017.52
2022-12-04T00:15:26.931Z,1017.51
2022-12-04T00:15:56.690Z,1017.51
2022-12-04T00:16:56.663Z,1017.54
2022-12-04T00:17:56.611Z,1017.57
2022-12-04T00:18:56.636Z,1017.55
2022-12-04T00:19:56.919Z,1017.56
2022-12-04T00:20:56.579Z,1017.55
2022-12-04T00:21:56.590Z,1017.55
2022-12-04T00:22:56.562Z,1017.53
2022-12-04T00:23:56.567Z,1017.53
2022-12-04T00:24:56.524Z,1017.53
2022-12-04T00:25:56.523Z,1017.51
2022-12-04T00:26:56.503Z,1017.49
2022-12-04T00:27:56.505Z,1017.47
2022-12-04T00:28:56.509Z,1017.46
2022-12-04T00:29:56.818Z,1017.46
2022-12-04T00:30:56.488Z,1017.46
2022-12-04T00:31:56.504Z,1017.46
2022-12-04T00:32:56.442Z,1017.47
2022-12-04T00:33:56.467Z,1017.46
2022-12-04T00:34:56.437Z,1017.44
2022-12-04T00:35:56.428Z,1017.42
2022-12-04T00:36:56.407Z,1017.41
2022-12-04T00:37:56.410Z,1017.39
2022-12-04T00:38:56.395Z,1017.39
2022-12-04T00:39:56.713Z,1017.37
2022-12-04T00:40:56.368Z,1017.35
2022-12-04T00:41:56.380Z,1017.35
2022-12-04T00:42:56.344Z,1017.35
2022-12-04T00:43:56.346Z,1017.34
2022-12-04T00:44:56.328Z,1017.35
2022-12-04T00:45:56.377Z,1017.34
2022-12-04T00:46:56.310Z,1017.35
2022-12-04T00:47:56.300Z,1017.36
2022-12-04T00:48:56.311Z,1017.35
2022-12-04T00:49:56.694Z,1017.36
2022-12-04T00:50:56.265Z,1017.37
2022-12-04T00:51:56.250Z,1017.39
2022-12-04T00:53:02.330Z,1017.40
2022-12-04T00:53:58.711Z,1017.41
2022-12-04T00:54:56.269Z,1017.40
2022-12-04T00:55:56.335Z,1017.42
2022-12-04T00:56:56.192Z,1017.42
2022-12-04T00:57:59.904Z,1017.40
2022-12-04T00:58:56.192Z,1017.40
2022-12-04T00:59:56.396Z,1017.40
2022-12-04T01:00:56.299Z,1017.39
2022-12-04T01:01:56.185Z,1017.39
2022-12-04T01:02:56.180Z,1017.39
2022-12-04T01:03:56.158Z,1017.38
2022-12-04T01:04:56.140Z,1017.40
2022-12-04T01:05:56.117Z,1017.38
2022-12-04T01:06:58.046Z,1017.38
2022-12-04T01:07:56.162Z,1017.38
2022-12-04T01:08:56.113Z,1017.38
2022-12-04T01:09:56.447Z,1017.38
2022-12-04T01:10:56.082Z,1017.37
2022-12-04T01:11:56.078Z,1017.34
2022-12-04T01:12:56.043Z,1017.38
2022-12-04T01:13:56.066Z,1017.37
2022-12-04T01:14:56.048Z,1017.39
2022-12-04T01:15:56.039Z,1017.39
2022-12-04T01:16:56.113Z,1017.41
2022-12-04T01:17:56.030Z,1017.41
2022-12-04T01:18:55.998Z,1017.42
2022-12-04T01:19:56.232Z,1017.42
2022-12-04T01:20:55.999Z,1017.43
2022-12-04T01:21:55.967Z,1017.41
2022-12-04T01:22:55.973Z,1017.42
2022-12-04T01:23:55.963Z,1017.40
2022-12-04T01:24:55.925Z,1017.39
2022-12-04T01:25:55.920Z,1017.40
2022-12-04T01:26:55.902Z,1017.38
2022-12-04T01:27:55.897Z,1017.38
2022-12-04T01:28:55.906Z,1017.38
2022-12-04T01:29:56.165Z,1017.39
2022-12-04T01:30:55.912Z,1017.37
2022-12-04T01:31:55.926Z,1017.37
2022-12-04T01:32:55.851Z,1017.35
2022-12-04T01:33:55.869Z,1017.34
2022-12-04T01:34:55.891Z,1017.32
2022-12-04T01:35:55.825Z,1017.33
2022-12-04T01:36:55.825Z,1017.33
2022-12-04T01:37:55.814Z,1017.30
2022-12-04T01:38:55.837Z,1017.29
2022-12-04T01:39:56.027Z,1017.29
2022-12-04T01:40:55.777Z,1017.28
2022-12-04T01:41:55.786Z,1017.26
2022-12-04T01:42:55.753Z,1017.24
2022-12-04T01:43:55.769Z,1017.23
2022-12-04T01:44:55.733Z,1017.21
2022-12-04T01:45:55.794Z,1017.20
2022-12-04T01:46:55.727Z,1017.19
2022-12-04T01:47:55.707Z,1017.18
2022-12-04T01:48:55.703Z,1017.18
2022-12-04T01:49:55.985Z,1017.17
2022-12-04T01:50:55.674Z,1017.17
2022-12-04T01:51:55.658Z,1017.19
2022-12-04T01:52:55.652Z,1017.18
2022-12-04T01:53:55.678Z,1017.20
2022-12-04T01:54:55.626Z,1017.20
2022-12-04T01:55:55.629Z,1017.21
2022-12-04T01:56:55.631Z,1017.22
2022-12-04T01:57:55.605Z,1017.21
2022-12-04T01:58:55.611Z,1017.20
2022-12-04T01:59:55.803Z,1017.22
2022-12-04T02:00:58.345Z,1017.21
2022-12-04T02:01:55.691Z,1017.21
2022-12-04T02:02:55.621Z,1017.20
2022-12-04T02:03:55.589Z,1017.18
2022-12-04T02:04:55.546Z,1017.17
2022-12-04T02:05:55.515Z,1017.17
2022-12-04T02:06:55.517Z,1017.15
2022-12-04T02:07:55.594Z,1017.15
2022-12-04T02:08:55.502Z,1017.15
2022-12-04T02:09:55.828Z,1017.14
2022-12-04T02:10:55.534Z,1017.15
2022-12-04T02:11:55.483Z,1017.15
2022-12-04T02:12:55.454Z,1017.13
2022-12-04T02:13:55.460Z,1017.11
2022-12-04T02:14:55.431Z,1017.10
2022-12-04T02:15:55.416Z,1017.07
2022-12-04T02:16:55.569Z,1017.06
2022-12-04T02:17:55.407Z,1017.03
2022-12-04T02:18:55.426Z,1017.01
2022-12-04T02:19:55.811Z,1017.00
2022-12-04T02:20:55.371Z,1017.00
2022-12-04T02:21:55.376Z,1017.01
2022-12-04T02:22:55.357Z,1017.00
2022-12-04T02:23:55.358Z,1017.00
2022-12-04T02:24:55.340Z,1016.99
2022-12-04T02:25:55.362Z,1016.99
2022-12-04T02:26:55.319Z,1016.99
2022-12-04T02:27:55.289Z,1016.98
2022-12-04T02:28:55.305Z,1016.97
2022-12-04T02:29:55.693Z,1016.97
2022-12-04T02:30:55.305Z,1016.95
2022-12-04T02:31:55.258Z,1016.94
2022-12-04T02:32:55.268Z,1016.96
2022-12-04T02:33:55.257Z,1016.95
2022-12-04T02:34:55.251Z,1016.93
2022-12-04T02:35:55.239Z,1016.93
2022-12-04T02:36:55.220Z,1016.92
2022-12-04T02:37:55.197Z,1016.89
2022-12-04T02:38:55.263Z,1016.89
2022-12-04T02:39:55.607Z,1016.89
2022-12-04T02:40:55.173Z,1016.91
2022-12-04T02:41:55.147Z,1016.91
2022-12-04T02:42:55.172Z,1016.90
2022-12-04T02:43:55.194Z,1016.92
2022-12-04T02:44:55.158Z,1016.91
2022-12-04T02:45:55.166Z,1016.91
2022-12-04T02:46:55.129Z,1016.90
2022-12-04T02:47:55.088Z,1016.87
2022-12-04T02:48:55.100Z,1016.84
2022-12-04T02:49:55.357Z,1016.84
2022-12-04T02:50:55.068Z,1016.85
2022-12-04T02:51:55.060Z,1016.83
2022-12-04T02:52:55.058Z,1016.80
2022-12-04T02:53:55.079Z,1016.79
2022-12-04T02:54:55.035Z,1016.79
2022-12-04T02:55:55.063Z,1016.78
2022-12-04T02:56:55.035Z,1016.79
2022-12-04T02:57:54.997Z,1016.76
2022-12-04T02:58:55.034Z,1016.73
2022-12-04T02:59:55.286Z,1016.69
2022-12-04T03:00:55.033Z,1016.67
2022-12-04T03:01:55.004Z,1016.66
2022-12-04T03:02:55.064Z,1016.63
2022-12-04T03:03:54.935Z,1016.59
2022-12-04T03:04:54.934Z,1016.58
2022-12-04T03:05:54.938Z,1016.57
2022-12-04T03:06:54.903Z,1016.59
2022-12-04T03:07:54.950Z,1016.57
2022-12-04T03:08:54.887Z,1016.56
2022-12-04T03:09:55.123Z,1016.57
2022-12-04T03:10:54.857Z,1016.56
2022-12-04T03:11:54.848Z,1016.59
2022-12-04T03:12:54.840Z,1016.58
2022-12-04T03:13:54.853Z,1016.56
2022-12-04T03:14:54.830Z,1016.57
2022-12-04T03:15:54.834Z,1016.56
2022-12-04T03:16:54.861Z,1016.60
2022-12-04T03:17:54.790Z,1016.56
2022-12-04T03:18:54.813Z,1016.60
2022-12-04T03:19:55.004Z,1016.61
2022-12-04T03:20:54.758Z,1016.63
2022-12-04T03:21:54.743Z,1016.63
2022-12-04T03:22:54.768Z,1016.64
2022-12-04T03:23:54.750Z,1016.63
2022-12-04T03:24:54.738Z,1016.64
2022-12-04T03:25:54.699Z,1016.59
2022-12-04T03:26:54.692Z,1016.57
2022-12-04T03:27:54.685Z,1016.56
2022-12-04T03:28:54.713Z,1016.55
2022-12-04T03:29:55.056Z,1016.53
2022-12-04T03:30:54.737Z,1016.58
2022-12-04T03:31:54.643Z,1016.55
2022-12-04T03:32:54.654Z,1016.59
2022-12-04T03:33:54.633Z,1016.60
2022-12-04T03:34:54.622Z,1016.62
2022-12-04T03:35:54.614Z,1016.62
2022-12-04T03:36:54.592Z,1016.62
2022-12-04T03:37:54.578Z,1016.63
2022-12-04T03:38:54.613Z,1016.67
2022-12-04T03:39:54.914Z,1016.67
2022-12-04T03:40:54.576Z,1016.68
2022-12-04T03:41:54.551Z,1016.69
2022-12-04T03:42:54.540Z,1016.70
2022-12-04T03:43:54.530Z,1016.70
2022-12-04T03:44:54.528Z,1016.75
2022-12-04T03:45:54.672Z,1016.69
2022-12-04T03:46:54.494Z,1016.70
2022-12-04T03:47:54.489Z,1016.70
2022-12-04T03:48:54.533Z,1016.67
2022-12-04T03:49:54.710Z,1016.68
2022-12-04T03:50:54.453Z,1016.68
2022-12-04T03:51:54.453Z,1016.66
2022-12-04T03:52:54.436Z,1016.65
2022-12-04T03:53:54.432Z,1016.67
2022-12-04T03:54:54.435Z,1016.68
2022-12-04T03:55:54.398Z,1016.70
2022-12-04T03:56:54.386Z,1016.70
2022-12-04T03:57:54.383Z,1016.71
2022-12-04T03:58:54.386Z,1016.70
2022-12-04T03:59:56.197Z,1016.70
2022-12-04T04:00:54.361Z,1016.71
2022-12-04T04:01:54.454Z,1016.70
2022-12-04T04:02:54.417Z,1016.71
2022-12-04T04:03:54.335Z,1016.69
2022-12-04T04:04:54.349Z,1016.68
2022-12-04T04:05:54.309Z,1016.68
2022-12-04T04:06:54.296Z,1016.65
2022-12-04T04:07:54.333Z,1016.64
2022-12-04T04:08:54.317Z,1016.59
2022-12-04T04:09:54.656Z,1016.56
2022-12-04T04:10:54.258Z,1016.55
2022-12-04T04:11:54.246Z,1016.53
2022-12-04T04:12:54.292Z,1016.52
2022-12-04T04:13:54.220Z,1016.49
2022-12-04T04:14:54.259Z,1016.48
2022-12-04T04:15:54.298Z,1016.45
2022-12-04T04:16:54.218Z,1016.44
2022-12-04T04:17:54.199Z,1016.44
2022-12-04T04:18:54.188Z,1016.43
2022-12-04T04:19:54.634Z,1016.43
2022-12-04T04:20:54.163Z,1016.44
2022-12-04T04:21:54.147Z,1016.42
2022-12-04T04:22:56.143Z,1016.44
2022-12-04T04:23:54.132Z,1016.43
2022-12-04T04:24:54.163Z,1016.44
2022-12-04T04:25:54.096Z,1016.43
2022-12-04T04:26:54.092Z,1016.42
2022-12-04T04:27:54.109Z,1016.40
2022-12-04T04:28:54.082Z,1016.39
2022-12-04T04:29:54.768Z,1016.40
2022-12-04T04:30:54.144Z,1016.41
2022-12-04T04:31:54.583Z,1016.44
2022-12-04T04:32:54.043Z,1016.46
2022-12-04T04:33:54.039Z,1016.46
2022-12-04T04:34:54.078Z,1016.46
2022-12-04T04:35:53.996Z,1016.45
2022-12-04T04:36:54.006Z,1016.45
2022-12-04T04:37:53.991Z,1016.44
2022-12-04T04:38:53.966Z,1016.44
2022-12-04T04:39:54.257Z,1016.40
2022-12-04T04:40:53.961Z,1016.36
2022-12-04T04:41:53.965Z,1016.33
2022-12-04T04:42:53.938Z,1016.35
2022-12-04T04:43:53.917Z,1016.37
2022-12-04T04:44:53.926Z,1016.43
2022-12-04T04:45:53.896Z,1016.47
2022-12-04T04:46:53.965Z,1016.49
2022-12-04T04:47:53.929Z,1016.52
2022-12-04T04:48:53.871Z,1016.53
2022-12-04T04:49:54.264Z,1016.54
2022-12-04T04:50:53.878Z,1016.52
2022-12-04T04:51:53.851Z,1016.53
2022-12-04T04:52:53.835Z,1016.54
2022-12-04T04:53:53.817Z,1016.52
2022-12-04T04:54:53.833Z,1016.51
2022-12-04T04:55:53.796Z,1016.50
2022-12-04T04:56:53.804Z,1016.48
2022-12-04T04:57:53.786Z,1016.48
2022-12-04T04:58:53.786Z,1016.48
2022-12-04T04:59:54.240Z,1016.48
2022-12-04T05:00:53.773Z,1016.49
2022-12-04T05:01:53.801Z,1016.48
2022-12-04T05:02:53.827Z,1016.48
2022-12-04T05:03:53.742Z,1016.46
2022-12-04T05:04:53.740Z,1016.47
2022-12-04T05:05:53.731Z,1016.48
2022-12-04T05:06:53.698Z,1016.47
2022-12-04T05:07:53.735Z,1016.49
2022-12-04T05:08:53.686Z,1016.50
2022-12-04T05:09:54.052Z,1016.50
2022-12-04T05:10:53.673Z,1016.51
2022-12-04T05:11:53.644Z,1016.53
2022-12-04T05:12:53.637Z,1016.55
2022-12-04T05:13:53.656Z,1016.56
2022-12-04T05:14:53.651Z,1016.56
2022-12-04T05:15:53.647Z,1016.55
2022-12-04T05:16:53.598Z,1016.56
2022-12-04T05:17:53.599Z,1016.54
2022-12-04T05:18:53.576Z,1016.53
2022-12-04T05:19:54.085Z,1016.52
2022-12-04T05:20:53.619Z,1016.54
2022-12-04T05:21:53.560Z,1016.54
2022-12-04T05:22:53.555Z,1016.54
2022-12-04T05:23:53.543Z,1016.56
2022-12-04T05:24:53.532Z,1016.57
2022-12-04T05:25:53.497Z,1016.58
2022-12-04T05:26:53.501Z,1016.57
2022-12-04T05:27:53.474Z,1016.56
2022-12-04T05:28:53.474Z,1016.53
2022-12-04T05:29:53.943Z,1016.51
2022-12-04T05:30:53.543Z,1016.51
2022-12-04T05:31:53.434Z,1016.49
2022-12-04T05:32:53.441Z,1016.47
2022-12-04T05:33:53.887Z,1016.45
2022-12-04T05:34:53.419Z,1016.45
2022-12-04T05:35:53.418Z,1016.45
2022-12-04T05:36:53.397Z,1016.44
2022-12-04T05:37:53.380Z,1016.44
2022-12-04T05:38:53.363Z,1016.44
2022-12-04T05:39:53.873Z,1016.44
2022-12-04T05:40:53.358Z,1016.44
2022-12-04T05:41:53.342Z,1016.44
2022-12-04T05:42:53.354Z,1016.42
2022-12-04T05:43:53.316Z,1016.43
2022-12-04T05:44:53.338Z,1016.43
2022-12-04T05:45:53.315Z,1016.45
2022-12-04T05:46:53.368Z,1016.46
2022-12-04T05:47:53.300Z,1016.48
2022-12-04T05:48:53.260Z,1016.53
2022-12-04T05:49:53.596Z,1016.54
2022-12-04T05:50:53.245Z,1016.55
2022-12-04T05:51:53.238Z,1016.55
2022-12-04T05:52:53.234Z,1016.54
2022-12-04T05:53:53.229Z,1016.51
2022-12-04T05:54:53.245Z,1016.50
2022-12-04T05:55:53.192Z,1016.48
2022-12-04T05:56:53.181Z,1016.45
2022-12-04T05:57:53.183Z,1016.45
2022-12-04T05:58:53.168Z,1016.44
2022-12-04T05:59:53.516Z,1016.44
2022-12-04T06:00:53.149Z,1016.44
2022-12-04T06:01:53.240Z,1016.43
2022-12-04T06:02:53.239Z,1016.44
2022-12-04T06:03:53.159Z,1016.45
2022-12-04T06:04:53.116Z,1016.46
2022-12-04T06:05:53.105Z,1016.44
2022-12-04T06:06:53.071Z,1016.43
2022-12-04T06:07:53.155Z,1016.44
2022-12-04T06:08:53.064Z,1016.44
2022-12-04T06:09:53.219Z,1016.45
2022-12-04T06:10:53.036Z,1016.46
2022-12-04T06:11:53.037Z,1016.45
2022-12-04T06:12:53.052Z,1016.44
2022-12-04T06:13:53.019Z,1016.43
2022-12-04T06:14:53.003Z,1016.45
2022-12-04T06:15:52.995Z,1016.47
2022-12-04T06:16:53.014Z,1016.51
2022-12-04T06:17:52.969Z,1016.50
2022-12-04T06:18:52.948Z,1016.50
2022-12-04T06:19:53.398Z,1016.50
2022-12-04T06:20:53.062Z,1016.47
2022-12-04T06:21:52.934Z,1016.49
2022-12-04T06:22:52.905Z,1016.48
2022-12-04T06:23:52.908Z,1016.47
2022-12-04T06:24:52.922Z,1016.48
2022-12-04T06:25:52.926Z,1016.46
2022-12-04T06:27:25.534Z,1016.48
2022-12-04T06:27:52.874Z,1016.49
2022-12-04T06:28:52.869Z,1016.48
2022-12-04T06:29:52.946Z,1016.44
2022-12-04T06:30:52.839Z,1016.44
2022-12-04T06:31:52.911Z,1016.44
2022-12-04T06:32:52.831Z,1016.42
2022-12-04T06:33:52.751Z,1016.41
2022-12-04T06:34:52.790Z,1016.40
2022-12-04T06:35:52.760Z,1016.40
2022-12-04T06:36:52.763Z,1016.38
2022-12-04T06:37:52.812Z,1016.37
2022-12-04T06:38:52.700Z,1016.38
2022-12-04T06:39:52.848Z,1016.38
2022-12-04T06:40:52.671Z,1016.39
2022-12-04T06:41:52.675Z,1016.39
2022-12-04T06:42:52.699Z,1016.40
2022-12-04T06:43:52.640Z,1016.40
2022-12-04T06:44:52.653Z,1016.41
2022-12-04T06:45:52.736Z,1016.40
2022-12-04T06:46:54.845Z,1016.42
2022-12-04T06:47:52.601Z,1016.43
2022-12-04T06:48:52.618Z,1016.45
2022-12-04T06:49:52.772Z,1016.45
2022-12-04T06:50:52.615Z,1016.45
2022-12-04T06:51:52.608Z,1016.45
2022-12-04T06:52:52.561Z,1016.44
2022-12-04T06:53:58.554Z,1016.43
2022-12-04T06:54:52.532Z,1016.47
2022-12-04T06:55:53.251Z,1016.46
2022-12-04T06:56:52.497Z,1016.47
2022-12-04T06:57:52.580Z,1016.46
2022-12-04T06:58:52.479Z,1016.45
2022-12-04T06:59:52.488Z,1016.45
2022-12-04T07:00:52.654Z,1016.47
2022-12-04T07:01:52.535Z,1016.47
2022-12-04T07:02:52.483Z,1016.48
2022-12-04T07:03:52.455Z,1016.49
2022-12-04T07:04:52.437Z,1016.47
2022-12-04T07:05:52.412Z,1016.45
2022-12-04T07:06:52.413Z,1016.45
2022-12-04T07:07:52.470Z,1016.44
2022-12-04T07:08:52.387Z,1016.45
2022-12-04T07:09:52.496Z,1016.47
2022-12-04T07:10:58.901Z,1016.47
2022-12-04T07:11:53.259Z,1016.47
2022-12-04T07:12:52.333Z,1016.46
2022-12-04T07:13:52.335Z,1016.46
2022-12-04T07:14:52.360Z,1016.43
2022-12-04T07:15:52.336Z,1016.44
2022-12-04T07:16:52.377Z,1016.44
2022-12-04T07:17:52.301Z,1016.46
2022-12-04T07:18:52.286Z,1016.45
2022-12-04T07:19:52.296Z,1016.45
2022-12-04T07:20:52.263Z,1016.45
2022-12-04T07:21:52.269Z,1016.45
2022-12-04T07:22:52.242Z,1016.41
2022-12-04T07:23:52.229Z,1016.41
2022-12-04T07:24:52.223Z,1016.40
2022-12-04T07:25:52.274Z,1016.39
2022-12-04T07:26:52.221Z,1016.39
2022-12-04T07:27:52.185Z,1016.39
2022-12-04T07:28:52.180Z,1016.39
2022-12-04T07:29:52.291Z,1016.40
2022-12-04T07:30:52.164Z,1016.42
2022-12-04T07:31:52.161Z,1016.42
2022-12-04T07:32:52.130Z,1016.42
2022-12-04T07:33:52.122Z,1016.40
2022-12-04T07:34:52.130Z,1016.40
2022-12-04T07:35:52.149Z,1016.41
2022-12-04T07:36:52.093Z,1016.41
2022-12-04T07:37:52.085Z,1016.42
2022-12-04T07:38:52.072Z,1016.44
2022-12-04T07:39:52.082Z,1016.45
2022-12-04T07:40:52.079Z,1016.46
2022-12-04T07:41:52.059Z,1016.45
2022-12-04T07:42:52.030Z,1016.47
2022-12-04T07:43:52.056Z,1016.49
2022-12-04T07:44:52.024Z,1016.51
2022-12-04T07:45:52.018Z,1016.49
2022-12-04T07:46:51.986Z,1016.51
2022-12-04T07:47:52.113Z,1016.53
2022-12-04T07:48:51.984Z,1016.53
2022-12-04T07:49:51.975Z,1016.52
2022-12-04T07:50:51.942Z,1016.54
2022-12-04T07:51:51.967Z,1016.54
2022-12-04T07:52:51.964Z,1016.57
2022-12-04T07:53:51.909Z,1016.59
2022-12-04T07:54:51.917Z,1016.59
2022-12-04T07:55:51.924Z,1016.60
2022-12-04T07:56:51.898Z,1016.61
2022-12-04T07:57:51.886Z,1016.61
2022-12-04T07:58:51.872Z,1016.63
2022-12-04T07:59:51.863Z,1016.61
2022-12-04T08:00:51.896Z,1016.63
2022-12-04T08:01:51.910Z,1016.62
2022-12-04T08:02:51.817Z,1016.63
2022-12-04T08:03:51.819Z,1016.63
2022-12-04T08:04:51.864Z,1016.63
2022-12-04T08:05:51.798Z,1016.64
2022-12-04T08:06:51.781Z,1016.64
2022-12-04T08:07:51.806Z,1016.66
2022-12-04T08:08:51.831Z,1016.65
2022-12-04T08:09:51.823Z,1016.65
2022-12-04T08:10:52.111Z,1016.66
2022-12-04T08:11:51.747Z,1016.65
2022-12-04T08:12:51.718Z,1016.66
2022-12-04T08:13:51.709Z,1016.66
2022-12-04T08:14:51.719Z,1016.67
2022-12-04T08:15:51.728Z,1016.69
2022-12-04T08:16:53.027Z,1016.70
2022-12-04T08:17:51.670Z,1016.68
2022-12-04T08:18:51.675Z,1016.70
2022-12-04T08:19:51.684Z,1016.70
2022-12-04T08:20:51.634Z,1016.70
2022-12-04T08:21:51.696Z,1016.69
2022-12-04T08:22:51.612Z,1016.70
2022-12-04T08:23:51.613Z,1016.70
2022-12-04T08:24:51.630Z,1016.69
2022-12-04T08:25:51.617Z,1016.68
2022-12-04T08:26:51.577Z,1016.67
2022-12-04T08:27:51.563Z,1016.70
2022-12-04T08:28:51.542Z,1016.70
2022-12-04T08:29:51.566Z,1016.70
2022-12-04T08:30:51.581Z,1016.70
2022-12-04T08:31:51.568Z,1016.69
2022-12-04T08:32:51.511Z,1016.68
2022-12-04T08:33:51.497Z,1016.67
2022-12-04T08:34:55.741Z,1016.66
2022-12-04T08:35:51.542Z,1016.66
2022-12-04T08:36:51.466Z,1016.65
2022-12-04T08:37:51.455Z,1016.63
2022-12-04T08:38:51.471Z,1016.64
2022-12-04T08:39:52.333Z,1016.61
2022-12-04T08:40:51.434Z,1016.64
2022-12-04T08:41:56.804Z,1016.65
2022-12-04T08:42:51.421Z,1016.68
2022-12-04T08:43:51.396Z,1016.69
2022-12-04T08:44:51.464Z,1016.70
2022-12-04T08:45:51.424Z,1016.69
2022-12-04T08:46:51.457Z,1016.69
2022-12-04T08:47:52.725Z,1016.71
2022-12-04T08:48:51.371Z,1016.70
2022-12-04T08:49:51.347Z,1016.72
2022-12-04T08:50:51.319Z,1016.73
2022-12-04T08:51:51.341Z,1016.72
2022-12-04T08:52:51.302Z,1016.70
2022-12-04T08:53:51.324Z,1016.66
2022-12-04T08:54:51.313Z,1016.66
2022-12-04T08:55:51.269Z,1016.66
2022-12-04T08:56:52.348Z,1016.65
2022-12-04T08:57:51.256Z,1016.66
2022-12-04T08:58:51.236Z,1016.68
2022-12-04T08:59:51.243Z,1016.66
2022-12-04T09:00:51.237Z,1016.64
2022-12-04T09:01:51.310Z,1016.62
2022-12-04T09:02:51.215Z,1016.62
2022-12-04T09:03:51.208Z,1016.62
2022-12-04T09:04:51.245Z,1016.59
2022-12-04T09:05:51.163Z,1016.59
2022-12-04T09:06:51.159Z,1016.58
2022-12-04T09:07:51.208Z,1016.60
2022-12-04T09:08:51.151Z,1016.59
2022-12-04T09:09:51.146Z,1016.56
2022-12-04T09:10:51.126Z,1016.55
2022-12-04T09:11:51.161Z,1016.52
2022-12-04T09:12:51.105Z,1016.52
2022-12-04T09:13:51.109Z,1016.52
2022-12-04T09:14:51.082Z,1016.53
2022-12-04T09:15:51.117Z,1016.55
2022-12-04T09:16:51.058Z,1016.56
2022-12-04T09:17:51.076Z,1016.56
2022-12-04T09:18:51.026Z,1016.58
2022-12-04T09:19:51.037Z,1016.61
2022-12-04T09:20:51.024Z,1016.60
2022-12-04T09:21:51.026Z,1016.65
2022-12-04T09:23:04.023Z,1016.67
2022-12-04T09:23:51.000Z,1016.66
2022-12-04T09:24:51.011Z,1016.68
2022-12-04T09:25:50.966Z,1016.71
2022-12-04T09:26:51.003Z,1016.71
2022-12-04T09:27:50.968Z,1016.69
2022-12-04T09:28:50.937Z,1016.70
2022-12-04T09:29:50.947Z,1016.71
2022-12-04T09:30:50.995Z,1016.72
2022-12-04T09:31:50.939Z,1016.75
2022-12-04T09:32:50.877Z,1016.74
2022-12-04T09:33:50.876Z,1016.74
2022-12-04T09:34:52.829Z,1016.76
2022-12-04T09:35:50.862Z,1016.73
2022-12-04T09:36:50.860Z,1016.70
2022-12-04T09:37:50.941Z,1016.71
2022-12-04T09:38:50.816Z,1016.69
2022-12-04T09:39:50.847Z,1016.70
2022-12-04T09:40:50.819Z,1016.68
2022-12-04T09:41:50.834Z,1016.66
2022-12-04T09:42:50.795Z,1016.66
2022-12-04T09:43:50.807Z,1016.66
2022-12-04T09:44:50.775Z,1016.63
2022-12-04T09:45:50.756Z,1016.64
2022-12-04T09:46:51.362Z,1016.64
2022-12-04T09:47:50.744Z,1016.61
2022-12-04T09:48:50.934Z,1016.64
2022-12-04T09:49:50.745Z,1016.62
2022-12-04T09:50:50.767Z,1016.61
2022-12-04T09:51:50.687Z,1016.58
2022-12-04T09:52:50.739Z,1016.57
2022-12-04T09:53:50.681Z,1016.55
2022-12-04T09:54:50.699Z,1016.56
2022-12-04T09:55:50.662Z,1016.55
2022-12-04T09:56:50.649Z,1016.53
2022-12-04T09:57:50.641Z,1016.53
2022-12-04T09:58:50.618Z,1016.51
2022-12-04T09:59:50.620Z,1016.50
2022-12-04T10:00:50.612Z,1016.46
2022-12-04T10:01:50.601Z,1016.46
2022-12-04T10:02:50.798Z,1016.39
2022-12-04T10:03:50.692Z,1016.40
2022-12-04T10:04:50.578Z,1016.38
2022-12-04T10:05:50.539Z,1016.38
2022-12-04T10:06:50.544Z,1016.37
2022-12-04T10:07:50.597Z,1016.36
2022-12-04T10:08:50.525Z,1016.35
2022-12-04T10:09:50.515Z,1016.33
2022-12-04T10:10:50.645Z,1016.34
2022-12-04T10:11:50.482Z,1016.31
2022-12-04T10:12:50.475Z,1016.30
2022-12-04T10:13:50.466Z,1016.28
2022-12-04T10:14:50.468Z,1016.27
2022-12-04T10:15:50.511Z,1016.26
2022-12-04T10:16:50.454Z,1016.26
2022-12-04T10:17:50.448Z,1016.26
2022-12-04T10:18:50.411Z,1016.24
2022-12-04T10:19:50.404Z,1016.23
2022-12-04T10:20:50.409Z,1016.25
2022-12-04T10:21:50.390Z,1016.26
2022-12-04T10:22:50.371Z,1016.25
2022-12-04T10:23:50.349Z,1016.26
2022-12-04T10:24:50.786Z,1016.23
2022-12-04T10:25:50.371Z,1016.21
2022-12-04T10:26:50.348Z,1016.21
2022-12-04T10:27:50.320Z,1016.21
2022-12-04T10:28:55.013Z,1016.21
2022-12-04T10:29:50.305Z,1016.21
2022-12-04T10:30:50.311Z,1016.20
2022-12-04T10:31:50.346Z,1016.19
2022-12-04T10:32:50.277Z,1016.16
2022-12-04T10:33:50.267Z,1016.14
2022-12-04T10:34:50.253Z,1016.11
2022-12-04T10:35:50.235Z,1016.09
2022-12-04T10:36:50.231Z,1016.06
2022-12-04T10:37:50.227Z,1016.05
2022-12-04T10:38:50.215Z,1016.05
2022-12-04T10:39:50.196Z,1016.04
2022-12-04T10:40:50.179Z,1016.02
2022-12-04T10:41:51.134Z,1016.01
2022-12-04T10:42:50.164Z,1016.00
2022-12-04T10:43:50.219Z,1015.98
2022-12-04T10:44:50.152Z,1015.98
2022-12-04T10:45:50.124Z,1016.01
2022-12-04T10:46:50.171Z,1015.98
2022-12-04T10:47:50.101Z,1015.99
2022-12-04T10:48:50.115Z,1015.99
2022-12-04T10:49:50.111Z,1015.99
2022-12-04T10:50:50.121Z,1016.01
2022-12-04T10:51:50.070Z,1016.02
2022-12-04T10:52:50.052Z,1016.00
2022-12-04T10:53:50.038Z,1016.00
2022-12-04T10:54:50.048Z,1015.98
2022-12-04T10:55:50.034Z,1015.98
2022-12-04T10:56:50.047Z,1015.98
2022-12-04T10:57:50.036Z,1015.97
2022-12-04T10:58:50.015Z,1015.99
2022-12-04T10:59:49.998Z,1015.93
2022-12-04T11:00:49.981Z,1015.95
2022-12-04T11:01:50.064Z,1015.90
2022-12-04T11:02:50.010Z,1015.90
2022-12-04T11:03:49.948Z,1015.90
2022-12-04T11:04:49.952Z,1015.91
2022-12-04T11:05:49.930Z,1015.91
2022-12-04T11:06:49.928Z,1015.94
2022-12-04T11:07:50.019Z,1015.94
2022-12-04T11:08:49.885Z,1015.91
2022-12-04T11:09:49.950Z,1015.89
2022-12-04T11:10:49.870Z,1015.86
2022-12-04T11:11:49.854Z,1015.89
2022-12-04T11:12:49.859Z,1015.87
2022-12-04T11:13:49.850Z,1015.87
2022-12-04T11:14:49.851Z,1015.85
2022-12-04T11:15:49.862Z,1015.86
2022-12-04T11:16:49.803Z,1015.88
2022-12-04T11:17:49.789Z,1015.90
2022-12-04T11:18:49.827Z,1015.89
2022-12-04T11:19:49.808Z,1015.89
2022-12-04T11:20:49.862Z,1015.88
2022-12-04T11:21:49.750Z,1015.87
2022-12-04T11:22:49.750Z,1015.88
2022-12-04T11:23:49.772Z,1015.88
2022-12-04T11:24:49.737Z,1015.85
2022-12-04T11:25:49.738Z,1015.83
2022-12-04T11:26:49.697Z,1015.83
2022-12-04T11:27:49.704Z,1015.82
2022-12-04T11:28:49.681Z,1015.82
2022-12-04T11:29:49.724Z,1015.80
2022-12-04T11:30:49.660Z,1015.83
2022-12-04T11:31:49.715Z,1015.82
2022-12-04T11:32:49.638Z,1015.84
2022-12-04T11:33:49.626Z,1015.89
2022-12-04T11:34:49.629Z,1015.83
2022-12-04T11:35:49.602Z,1015.80
2022-12-04T11:36:49.607Z,1015.83
2022-12-04T11:37:49.582Z,1015.83
2022-12-04T11:38:49.574Z,1015.83
2022-12-04T11:39:49.581Z,1015.78
2022-12-04T11:40:49.558Z,1015.79
2022-12-04T11:41:49.540Z,1015.76
2022-12-04T11:42:49.550Z,1015.76
2022-12-04T11:43:49.543Z,1015.74
2022-12-04T11:44:49.534Z,1015.74
2022-12-04T11:45:49.503Z,1015.77
2022-12-04T11:46:49.561Z,1015.77
2022-12-04T11:47:49.495Z,1015.78
2022-12-04T11:48:49.478Z,1015.79
2022-12-04T11:49:49.475Z,1015.82
2022-12-04T11:50:49.488Z,1015.82
2022-12-04T11:51:49.444Z,1015.79
2022-12-04T11:52:49.467Z,1015.78
2022-12-04T11:53:49.415Z,1015.74
2022-12-04T11:54:49.432Z,1015.70
2022-12-04T11:55:49.447Z,1015.67
2022-12-04T11:56:49.405Z,1015.63
2022-12-04T11:57:49.402Z,1015.61
2022-12-04T11:58:49.370Z,1015.61
2022-12-04T11:59:49.406Z,1015.62
2022-12-04T12:00:49.364Z,1015.62
2022-12-04T12:01:53.354Z,1015.61
2022-12-04T12:02:49.570Z,1015.59
2022-12-04T12:03:49.328Z,1015.56
2022-12-04T12:04:49.327Z,1015.55
2022-12-04T12:05:49.366Z,1015.54